Time;durP1;ratioP1;P1;durP2;ratioP2;P2;SDS_P1;SDS_P2;PMS_P1;PMS_P2;Temp;Humidity;BMP_temperature;BMP_pressure;BME280_temperature;BME280_humidity;BME280_pressure;Samples;Min_cycle;Max_cycle;Signal;HPM_P1;HPM_P2
2022/01/02 00:01:06;;;;;;;381.40;219.10;;;;;;;9.33;100.00;99396.38;4851377;29;20113;-64
2022/01/02 00:03:52;;;;;;;386.58;218.52;;;;;;;9.36;100.00;99404.03;4852309;29;20045;-64
2022/01/02 00:06:51;;;;;;;401.42;218.57;;;;;;;9.35;100.00;99411.75;4850678;29;20058;-65
2022/01/02 00:09:36;;;;;;;384.15;210.30;;;;;;;9.47;100.00;99407.31;4854822;29;20140;-63
2022/01/02 00:12:26;;;;;;;378.30;206.68;;;;;;;9.42;100.00;99411.66;4854275;29;20041;-65
2022/01/02 00:15:08;;;;;;;383.05;219.68;;;;;;;9.13;100.00;99408.63;4852358;29;20053;-65
2022/01/02 00:18:07;;;;;;;375.92;209.57;;;;;;;9.33;100.00;99393.81;4851455;29;20118;-64
2022/01/02 00:20:49;;;;;;;380.27;215.38;;;;;;;9.14;100.00;99403.47;4851072;29;20068;-65
2022/01/02 00:26:58;;;;;;;380.33;210.60;;;;;;;9.29;100.00;99412.69;4842709;29;20101;-64
2022/01/02 00:29:49;;;;;;;391.33;214.98;;;;;;;9.33;100.00;99411.81;4866616;29;20059;-65
2022/01/02 00:32:44;;;;;;;395.70;217.95;;;;;;;9.04;100.00;99398.44;4865275;29;20081;-65
2022/01/02 00:35:27;;;;;;;403.48;218.90;;;;;;;8.94;100.00;99404.59;4862673;29;20324;-65
2022/01/02 00:38:22;;;;;;;385.10;215.05;;;;;;;9.15;100.00;99405.16;4866466;29;20045;-64
2022/01/02 00:41:05;;;;;;;390.65;220.70;;;;;;;9.25;100.00;99403.34;4859827;29;20049;-66
2022/01/02 00:44:18;;;;;;;379.55;216.05;;;;;;;9.07;100.00;99406.97;4841398;29;20374;-64
2022/01/02 00:47:19;;;;;;;402.33;214.20;;;;;;;8.95;100.00;99411.41;4833502;29;20056;-65
2022/01/02 00:50:12;;;;;;;382.23;210.73;;;;;;;8.87;100.00;99413.22;4862880;29;20053;-65
2022/01/02 00:52:56;;;;;;;400.58;218.85;;;;;;;8.80;100.00;99427.84;4844051;29;20057;-64
2022/01/02 00:55:53;;;;;;;393.55;214.77;;;;;;;9.06;100.00;99430.97;4844702;29;20480;-65
2022/01/02 00:58:52;;;;;;;395.88;219.30;;;;;;;9.06;100.00;99430.97;4844696;29;20152;-64
2022/01/02 01:01:41;;;;;;;392.17;219.18;;;;;;;9.12;100.00;99435.19;4844676;29;20064;-64
2022/01/02 01:04:33;;;;;;;388.20;219.70;;;;;;;8.98;100.00;99434.50;4814890;29;20046;-63
2022/01/02 01:07:25;;;;;;;381.95;217.93;;;;;;;9.05;100.00;99424.13;4835385;29;20077;-64
2022/01/02 01:10:11;;;;;;;387.20;215.63;;;;;;;8.99;100.00;99428.50;4832757;29;20429;-64
2022/01/02 01:13:02;;;;;;;402.70;222.80;;;;;;;8.94;100.00;99425.16;4837618;29;20110;-64
2022/01/02 01:15:50;;;;;;;398.70;221.35;;;;;;;9.10;100.00;99429.22;4850956;29;20057;-64
2022/01/02 01:18:39;;;;;;;398.33;221.50;;;;;;;9.08;100.00;99429.25;4855962;29;20053;-65
2022/01/02 01:21:21;;;;;;;383.98;222.63;;;;;;;9.16;100.00;99430.00;4856866;29;20054;-64
2022/01/02 01:24:10;;;;;;;399.08;226.00;;;;;;;9.15;100.00;99424.88;4859204;29;20471;-64
2022/01/02 01:26:55;;;;;;;389.02;221.07;;;;;;;9.04;100.00;99427.56;4844459;29;20148;-65
2022/01/02 01:29:44;;;;;;;401.38;224.02;;;;;;;9.06;100.00;99432.69;4837847;29;20141;-64
2022/01/02 01:32:26;;;;;;;409.88;230.00;;;;;;;9.06;100.00;99435.25;4841496;29;20507;-65
2022/01/02 01:35:16;;;;;;;411.13;226.25;;;;;;;8.85;100.00;99435.53;4856633;29;20140;-64
2022/01/02 01:37:58;;;;;;;407.30;230.90;;;;;;;8.71;100.00;99444.19;4853915;29;20061;-65
2022/01/02 01:41:20;;;;;;;402.55;222.63;;;;;;;8.74;100.00;99443.34;4845373;29;20053;-64
2022/01/02 01:44:21;;;;;;;409.77;225.68;;;;;;;8.59;100.00;99441.78;4851342;29;20049;-64
2022/01/02 01:47:09;;;;;;;401.27;225.00;;;;;;;8.70;100.00;99446.81;4857829;29;20049;-64
2022/01/02 01:49:50;;;;;;;409.23;231.27;;;;;;;8.90;100.00;99450.00;4868015;29;20477;-64
2022/01/02 01:52:39;;;;;;;402.70;227.63;;;;;;;8.73;100.00;99459.59;4847785;29;20118;-64
2022/01/02 01:55:30;;;;;;;405.40;221.95;;;;;;;8.61;100.00;99463.16;4855865;29;20494;-64
2022/01/02 01:58:25;;;;;;;407.75;233.00;;;;;;;8.55;100.00;99463.19;4829435;29;20042;-64
2022/01/02 02:01:09;;;;;;;415.92;237.57;;;;;;;8.49;100.00;99467.53;4823105;29;20057;-64
2022/01/02 02:04:21;;;;;;;398.25;225.50;;;;;;;8.75;100.00;99465.59;4830564;29;20049;-65
2022/01/02 02:07:06;;;;;;;396.92;226.13;;;;;;;8.78;100.00;99468.97;4837723;29;20570;-65
2022/01/02 02:13:10;;;;;;;412.35;231.35;;;;;;;8.60;100.00;99476.00;4823241;29;20058;-64
2022/01/02 02:16:08;;;;;;;414.70;230.93;;;;;;;8.67;100.00;99475.94;4824998;29;20054;-65
2022/01/02 02:18:44;;;;;;;416.52;231.23;;;;;;;8.86;100.00;99475.75;4825073;29;20148;-65
2022/01/02 02:21:44;;;;;;;421.75;238.52;;;;;;;8.73;100.00;99483.56;4833989;29;20042;-65
2022/01/02 02:24:31;;;;;;;419.30;235.27;;;;;;;8.65;100.00;99482.78;4821991;29;20057;-66
2022/01/02 02:27:13;;;;;;;418.45;236.63;;;;;;;8.67;100.00;99477.66;4796824;29;20070;-65
2022/01/02 02:30:05;;;;;;;434.75;237.60;;;;;;;8.65;100.00;99485.38;4827230;29;20053;-65
2022/01/02 02:32:52;;;;;;;426.67;241.10;;;;;;;8.94;100.00;99491.94;4809217;29;20053;-66
2022/01/02 02:35:44;;;;;;;445.30;249.07;;;;;;;9.09;100.00;99496.94;4819520;29;20069;-66
2022/01/02 02:38:32;;;;;;;432.70;241.55;;;;;;;9.20;100.00;99495.06;4841000;29;20061;-65
2022/01/02 02:41:33;;;;;;;448.90;248.27;;;;;;;9.12;100.00;99496.88;4828051;29;20143;-64
2022/01/02 02:44:19;;;;;;;443.90;245.20;;;;;;;9.04;100.00;99501.25;4825646;29;20144;-66
2022/01/02 02:50:09;;;;;;;425.60;240.15;;;;;;;9.52;100.00;99516.09;4831318;29;20053;-65
2022/01/02 02:53:03;;;;;;;424.08;243.68;;;;;;;9.60;100.00;99516.00;4849516;29;20054;-66
2022/01/02 02:55:44;;;;;;;433.33;247.88;;;;;;;9.59;100.00;99515.16;4829549;29;20053;-65
2022/01/02 02:58:41;;;;;;;422.63;244.77;;;;;;;9.60;100.00;99521.16;4826508;29;20053;-66
2022/01/02 03:01:19;;;;;;;431.08;244.38;;;;;;;9.61;100.00;99517.72;4828924;29;20057;-66
2022/01/02 03:04:08;;;;;;;432.42;243.13;;;;;;;10.16;100.00;99522.94;4823097;29;20045;-62
2022/01/02 03:06:56;;;;;;;434.30;244.63;;;;;;;10.37;100.00;99528.69;4844651;29;20144;-64
2022/01/02 03:09:41;;;;;;;414.60;242.15;;;;;;;10.45;100.00;99532.00;4826959;29;20053;-64
2022/01/02 03:12:29;;;;;;;418.15;242.23;;;;;;;10.44;100.00;99531.16;4827613;29;20041;-64
2022/01/02 03:15:11;;;;;;;409.58;237.35;;;;;;;10.29;100.00;99534.81;4842229;29;20058;-64
2022/01/02 03:17:59;;;;;;;419.60;238.75;;;;;;;10.29;100.00;99533.97;4828766;29;20156;-67
2022/01/02 03:20:54;;;;;;;423.40;238.40;;;;;;;10.46;100.00;99534.53;4842967;29;20057;-64
2022/01/02 03:23:30;;;;;;;414.75;240.38;;;;;;;10.83;100.00;99532.22;4832999;29;20505;-64
2022/01/02 03:26:20;;;;;;;400.45;241.68;;;;;;;11.24;100.00;99530.63;4832332;29;20060;-65
2022/01/02 03:29:01;;;;;;;417.47;250.33;;;;;;;11.42;100.00;99545.72;4823790;29;20058;-65
2022/01/02 03:31:59;;;;;;;418.15;254.88;;;;;;;11.48;100.00;99548.19;4835782;29;20293;-62
2022/01/02 03:34:36;;;;;;;436.48;262.17;;;;;;;11.61;100.00;99554.81;4830774;29;20122;-65
2022/01/02 03:37:33;;;;;;;445.00;269.30;;;;;;;11.65;100.00;99547.88;4819320;29;20088;-65
2022/01/02 03:40:10;;;;;;;448.25;267.50;;;;;;;11.66;100.00;99552.97;4823857;29;20090;-65
2022/01/02 03:42:58;;;;;;;435.58;254.00;;;;;;;11.88;100.00;99556.88;4821912;29;20053;-65
2022/01/02 03:45:40;;;;;;;422.55;256.90;;;;;;;12.07;100.00;99559.03;4816777;29;20062;-65
2022/01/02 03:48:31;;;;;;;426.58;255.43;;;;;;;12.11;100.00;99560.66;4819014;29;20546;-65
2022/01/02 03:51:19;;;;;;;420.25;249.88;;;;;;;12.17;100.00;99552.78;4817762;29;20141;-66
2022/01/02 03:54:14;;;;;;;407.83;244.73;;;;;;;12.21;100.00;99564.75;4816806;29;20077;-65
2022/01/02 03:57:03;;;;;;;415.98;251.25;;;;;;;12.46;100.00;99578.78;4826127;29;20074;-65
2022/01/02 03:59:58;;;;;;;412.15;244.73;;;;;;;12.94;100.00;99576.75;4853772;29;20053;-65
2022/01/02 04:02:40;;;;;;;405.35;251.48;;;;;;;13.58;100.00;99582.00;4854914;29;20057;-65
2022/01/02 04:05:30;;;;;;;;;;;;;;;14.27;100.00;99588.63;4836778;29;20726;-65
2022/01/02 04:08:17;;;;;;;391.05;241.80;;;;;;;14.72;100.00;99589.81;4841332;29;19931;-66
2022/01/02 04:11:00;;;;;;;392.88;240.63;;;;;;;14.93;100.00;99586.50;4852508;29;20051;-66
2022/01/02 04:13:49;;;;;;;376.48;221.90;;;;;;;15.59;100.00;99592.91;4855288;29;20077;-65
2022/01/02 04:16:31;;;;;;;363.10;213.05;;;;;;;16.10;100.00;99596.28;4859462;29;20050;-66
2022/01/02 04:19:20;;;;;;;344.02;193.25;;;;;;;16.38;100.00;99592.53;4841690;29;20489;-66
2022/01/02 04:22:03;;;;;;;298.10;167.57;;;;;;;16.55;97.55;99598.84;4852047;29;20148;-66
2022/01/02 04:24:52;;;;;;;294.23;160.57;;;;;;;16.90;92.25;99605.28;4843580;29;20057;-66
2022/01/02 04:27:38;;;;;;;261.48;139.48;;;;;;;16.99;75.81;99613.56;4834029;29;20076;-66
2022/01/02 04:30:26;;;;;;;252.52;139.20;;;;;;;17.29;77.51;99614.03;4803646;29;20058;-66
2022/01/02 04:33:09;;;;;;;232.80;125.23;;;;;;;17.28;64.43;99621.91;4839928;29;20053;-66
2022/01/02 04:35:59;;;;;;;229.70;125.75;;;;;;;17.55;65.92;99620.75;4857567;29;20140;-67
2022/01/02 04:38:43;;;;;;;226.60;129.05;;;;;;;17.71;65.88;99611.38;4846263;29;20069;-64
2022/01/02 04:41:32;;;;;;;248.05;137.88;;;;;;;17.91;67.14;99616.53;4852352;29;20049;-64
2022/01/02 04:44:15;;;;;;;283.88;155.32;;;;;;;17.45;65.70;99612.47;4839167;29;20061;-64
2022/01/02 04:47:07;;;;;;;277.70;152.32;;;;;;;17.54;72.57;99616.44;4848580;29;20053;-66
2022/01/02 04:49:49;;;;;;;292.35;155.10;;;;;;;17.97;67.65;99613.63;4856644;29;20065;-64
2022/01/02 04:52:39;;;;;;;255.05;141.77;;;;;;;17.96;67.52;99616.31;4856290;29;20644;-64
2022/01/02 04:55:21;;;;;;;249.20;138.20;;;;;;;17.79;61.86;99617.09;4856151;29;20061;-66
2022/01/02 04:58:18;;;;;;;249.50;134.45;;;;;;;17.67;64.87;99619.38;4826439;29;20145;-64
2022/01/02 05:00:55;;;;;;;240.68;130.40;;;;;;;17.52;59.07;99620.84;4823741;29;20486;-66
2022/01/02 05:03:50;;;;;;;228.88;125.75;;;;;;;17.60;56.40;99622.22;4842460;29;20129;-64
2022/01/02 05:06:26;;;;;;;227.35;125.68;;;;;;;17.81;58.56;99617.84;4827408;29;20049;-65
2022/01/02 05:09:24;;;;;;;218.52;121.80;;;;;;;17.71;64.05;99611.38;4829401;29;20050;-65
2022/01/02 05:12:00;;;;;;;209.93;114.07;;;;;;;17.76;57.84;99625.03;4841535;29;20126;-65
2022/01/02 05:14:57;;;;;;;201.77;110.50;;;;;;;17.86;53.10;99617.66;4844982;29;20481;-64
2022/01/02 05:17:32;;;;;;;200.93;103.90;;;;;;;17.82;55.82;99614.31;4854569;29;20053;-65
2022/01/02 05:20:21;;;;;;;197.77;103.53;;;;;;;17.94;51.74;99613.78;4829606;29;20053;-65
2022/01/02 05:23:03;;;;;;;189.63;101.45;;;;;;;18.00;51.29;99607.44;4848436;29;20065;-65
2022/01/02 05:25:58;;;;;;;195.63;104.00;;;;;;;18.21;55.13;99601.25;4832872;29;20081;-65
2022/01/02 05:28:36;;;;;;;202.35;105.32;;;;;;;18.23;52.41;99609.00;4845009;29;20065;-66
2022/01/02 05:31:24;;;;;;;200.63;102.72;;;;;;;18.30;51.24;99599.97;4839191;29;20064;-64
2022/01/02 05:34:07;;;;;;;195.10;105.55;;;;;;;18.66;52.12;99589.59;4836683;29;20152;-65
2022/01/02 05:36:55;;;;;;;216.15;110.90;;;;;;;18.30;50.18;99593.00;4840721;29;20373;-65
2022/01/02 05:39:39;;;;;;;199.32;103.95;;;;;;;18.39;50.41;99593.47;4846674;29;20133;-64
2022/01/02 05:42:34;;;;;;;193.68;103.82;;;;;;;18.42;48.77;99588.13;4847297;29;20058;-66
2022/01/02 05:45:12;;;;;;;211.40;108.82;;;;;;;18.82;52.45;99574.03;4838153;29;20058;-65
2022/01/02 05:48:02;;;;;;;202.13;105.45;;;;;;;18.86;52.33;99567.72;4836054;29;20134;-65
2022/01/02 05:50:44;;;;;;;200.00;105.63;;;;;;;19.03;54.81;99560.75;4832090;29;20485;-65
2022/01/02 05:53:40;;;;;;;211.25;108.03;;;;;;;18.69;50.65;99563.31;4811551;29;20064;-65
2022/01/02 05:56:16;;;;;;;193.15;103.55;;;;;;;18.70;47.59;99549.34;4819091;29;20099;-65
2022/01/02 05:59:10;;;;;;;197.13;102.25;;;;;;;18.88;51.75;99552.81;4834311;29;20053;-65
2022/01/02 06:01:47;;;;;;;197.45;102.20;;;;;;;18.96;51.11;99545.44;4845253;29;20045;-65
2022/01/02 06:04:35;;;;;;;199.27;99.75;;;;;;;19.34;49.31;99538.25;4845138;29;20049;-65
2022/01/02 06:07:24;;;;;;;182.32;93.95;;;;;;;19.15;48.85;99540.16;4836713;29;20061;-65
2022/01/02 06:10:07;;;;;;;189.98;96.53;;;;;;;19.36;53.91;99532.03;4835210;29;20049;-65
2022/01/02 06:12:54;;;;;;;175.55;95.05;;;;;;;19.25;50.62;99528.28;4840209;29;20049;-65
2022/01/02 06:15:42;;;;;;;203.95;98.93;;;;;;;19.23;47.59;99515.31;4830547;29;20053;-65
2022/01/02 06:18:25;;;;;;;182.95;102.28;;;;;;;19.29;50.06;99507.16;4844526;29;20135;-67
2022/01/02 06:21:20;;;;;;;192.23;98.90;;;;;;;19.63;47.78;99502.78;4839858;29;20041;-69
2022/01/02 06:23:56;;;;;;;178.00;93.22;;;;;;;19.31;46.79;99499.25;4843085;29;20060;-68
2022/01/02 06:26:51;;;;;;;187.90;96.38;;;;;;;19.61;50.12;99502.03;4844393;29;20867;-66
2022/01/02 06:29:27;;;;;;;189.80;98.60;;;;;;;19.68;50.42;99495.53;4850829;29;20495;-66
2022/01/02 06:32:15;;;;;;;180.38;97.90;;;;;;;19.64;49.04;99491.38;4843917;29;20720;-68
2022/01/02 06:34:57;;;;;;;190.38;95.50;;;;;;;19.91;46.27;99482.03;4835942;29;20046;-67
2022/01/02 06:37:46;;;;;;;176.35;94.35;;;;;;;19.92;47.48;99470.66;4836868;29;20126;-68
2022/01/02 06:40:34;;;;;;;182.13;87.78;;;;;;;20.09;46.14;99464.50;4841370;29;20513;-66
2022/01/02 06:43:25;;;;;;;154.77;77.38;;;;;;;19.82;45.00;99456.41;4815890;29;20049;-66
2022/01/02 06:46:07;;;;;;;163.95;80.97;;;;;;;19.84;48.47;99454.56;4843675;29;20049;-67
2022/01/02 06:48:56;;;;;;;134.90;73.15;;;;;;;20.08;44.69;99447.94;4826284;29;20049;-67
2022/01/02 06:51:58;;;;;;;150.40;77.63;;;;;;;20.05;44.17;99437.66;4830966;29;20053;-68
2022/01/02 06:54:47;;;;;;;148.35;78.35;;;;;;;20.08;43.68;99432.25;4829728;29;20420;-68
2022/01/02 06:57:29;;;;;;;164.48;84.35;;;;;;;20.00;44.04;99416.16;4831073;29;20050;-66
2022/01/02 07:00:18;;;;;;;170.02;81.25;;;;;;;20.34;45.09;99403.78;4832563;29;20042;-66
2022/01/02 07:03:09;;;;;;;143.68;69.03;;;;;;;20.13;43.09;99409.28;4828824;29;20054;-68
2022/01/02 07:06:06;;;;;;;134.02;67.07;;;;;;;20.15;41.58;99404.81;4827759;29;20052;-67
2022/01/02 07:08:41;;;;;;;132.88;70.35;;;;;;;20.25;44.46;99405.13;4806757;29;20068;-69
2022/01/02 07:11:29;;;;;;;145.00;70.97;;;;;;;20.30;43.17;99402.22;4846280;29;20045;-66
2022/01/02 07:14:12;;;;;;;133.70;69.28;;;;;;;20.43;44.15;99396.22;4831693;29;20113;-66
2022/01/02 07:17:01;;;;;;;145.55;71.97;;;;;;;20.42;42.65;99393.72;4845172;29;20045;-68
2022/01/02 07:19:49;;;;;;;127.68;65.13;;;;;;;20.52;44.35;99390.44;4844800;29;20661;-66
2022/01/02 07:22:30;;;;;;;131.85;66.45;;;;;;;20.36;43.67;99379.19;4838209;29;20376;-66
2022/01/02 07:25:19;;;;;;;118.38;63.40;;;;;;;20.05;41.75;99384.47;4833333;29;20054;-62
2022/01/02 07:28:01;;;;;;;120.80;57.75;;;;;;;20.26;41.21;99385.88;4844462;29;20500;-63
2022/01/02 07:30:50;;;;;;;99.28;51.17;;;;;;;20.31;41.89;99380.38;4841308;29;20110;-67
2022/01/02 07:33:32;;;;;;;89.68;46.83;;;;;;;20.21;40.25;99375.66;4845192;29;20061;-67
2022/01/02 07:36:21;;;;;;;84.85;43.58;;;;;;;20.10;40.54;99377.22;4846348;29;20141;-66
2022/01/02 07:39:03;;;;;;;83.03;40.85;;;;;;;20.20;38.44;99373.97;4841509;29;20149;-66
2022/01/02 07:41:52;;;;;;;69.97;39.70;;;;;;;20.08;39.03;99373.84;4851042;29;20053;-67
2022/01/02 07:44:43;;;;;;;81.35;40.72;;;;;;;20.22;41.50;99361.66;4848474;29;20064;-66
2022/01/02 07:47:33;;;;;;;87.70;47.80;;;;;;;20.30;41.11;99357.75;4835969;29;20064;-66
2022/01/02 07:50:14;;;;;;;105.95;50.67;;;;;;;20.47;43.24;99344.53;4840678;29;20109;-66
2022/01/02 07:53:03;;;;;;;94.05;48.65;;;;;;;20.39;41.38;99345.00;4827191;29;20454;-65
2022/01/02 07:55:45;;;;;;;100.18;50.58;;;;;;;20.53;40.70;99338.91;4833614;29;20058;-66
2022/01/02 07:58:39;;;;;;;97.80;50.28;;;;;;;20.35;40.26;99334.81;4832427;29;20114;-65
2022/01/02 08:01:15;;;;;;;106.38;54.83;;;;;;;20.35;42.49;99324.34;4838017;29;20061;-65
2022/01/02 08:04:12;;;;;;;108.60;54.65;;;;;;;20.20;41.47;99313.78;4839104;29;20058;-65
2022/01/02 08:06:47;;;;;;;112.40;55.40;;;;;;;20.29;43.23;99309.78;4834330;29;20066;-65
2022/01/02 08:09:35;;;;;;;96.88;52.78;;;;;;;20.29;42.85;99299.31;4835770;29;20133;-66
2022/01/02 08:12:17;;;;;;;96.90;49.28;;;;;;;20.34;41.12;99296.47;4832635;29;20166;-65
2022/01/02 08:15:08;;;;;;;92.53;47.58;;;;;;;20.33;40.22;99300.00;4832848;29;20128;-64
2022/01/02 08:17:50;;;;;;;79.22;44.55;;;;;;;20.32;39.10;99285.22;4849341;29;20505;-64
2022/01/02 08:20:38;;;;;;;81.25;47.10;;;;;;;20.34;39.69;99280.78;4849065;29;20502;-64
2022/01/02 08:23:20;;;;;;;90.82;46.50;;;;;;;20.07;40.24;99275.38;4847315;29;20054;-64
2022/01/02 08:26:36;;;;;;;95.38;48.63;;;;;;;20.07;41.96;99273.59;4834974;29;20711;-64
2022/01/02 08:29:12;;;;;;;89.43;45.70;;;;;;;20.00;41.39;99255.75;4826761;29;20549;-64
2022/01/02 08:32:07;;;;;;;86.57;43.78;;;;;;;19.96;42.45;99254.22;4836353;29;20049;-64
2022/01/02 08:34:43;;;;;;;77.70;40.53;;;;;;;19.95;40.80;99258.66;4852472;29;20049;-63
2022/01/02 08:37:32;;;;;;;94.70;39.25;;;;;;;19.99;40.22;99260.13;4849045;29;20137;-64
2022/01/02 08:40:15;;;;;;;80.45;42.88;;;;;;;19.88;42.30;99262.53;4844773;29;20054;-65
2022/01/02 08:43:03;;;;;;;74.03;40.67;;;;;;;19.86;42.57;99259.19;4822283;29;20066;-65
2022/01/02 08:45:45;;;;;;;83.40;39.08;;;;;;;19.93;41.63;99255.28;4845077;29;20466;-65
2022/01/02 08:48:41;;;;;;;76.10;36.70;;;;;;;19.85;40.54;99247.88;4838498;29;20069;-63
2022/01/02 08:51:17;;;;;;;69.10;36.20;;;;;;;19.90;40.16;99244.13;4838660;29;20469;-63
2022/01/02 08:54:13;;;;;;;74.30;38.70;;;;;;;19.82;40.02;99241.97;4823063;29;20054;-64
2022/01/02 08:56:48;;;;;;;88.07;40.65;;;;;;;19.81;41.34;99253.34;4830587;29;20073;-64
2022/01/02 08:59:43;;;;;;;96.38;44.60;;;;;;;19.84;41.41;99250.56;4826923;29;20385;-64
2022/01/02 09:02:34;;;;;;;90.93;44.47;;;;;;;19.86;42.37;99248.72;4831634;29;20133;-63
2022/01/02 09:05:10;;;;;;;99.50;48.15;;;;;;;19.84;41.66;99250.56;4833722;29;20061;-63
2022/01/02 09:07:59;;;;;;;100.28;48.13;;;;;;;19.88;41.90;99259.91;4846599;29;20597;-63
2022/01/02 09:10:47;;;;;;;103.20;51.55;;;;;;;19.78;42.99;99261.41;4820734;29;20149;-64
2022/01/02 09:13:36;;;;;;;114.38;54.08;;;;;;;19.74;44.26;99268.56;4824872;29;20076;-63
2022/01/02 09:16:18;;;;;;;111.78;54.10;;;;;;;19.71;43.38;99268.75;4848390;29;20053;-64
2022/01/02 09:19:06;;;;;;;109.30;53.22;;;;;;;19.71;45.07;99271.38;4845476;29;20498;-66
2022/01/02 09:21:48;;;;;;;100.13;49.63;;;;;;;19.53;43.51;99268.97;4838570;29;20115;-64
2022/01/02 09:24:37;;;;;;;110.57;53.17;;;;;;;19.46;43.62;99258.84;4804433;29;20126;-64
2022/01/02 09:27:19;;;;;;;120.88;54.10;;;;;;;19.49;43.94;99258.69;4835807;29;20476;-65
2022/01/02 09:30:10;;;;;;;111.43;55.75;;;;;;;19.44;44.70;99257.22;4845361;29;20058;-65
2022/01/02 09:32:54;;;;;;;109.60;50.65;;;;;;;19.40;43.61;99251.31;4838439;29;20452;-64
2022/01/02 09:35:45;;;;;;;104.53;47.33;;;;;;;19.39;43.24;99261.88;4831028;29;20068;-64
2022/01/02 09:38:42;;;;;;;103.50;47.80;;;;;;;19.33;43.26;99257.81;4849555;29;20339;-63
2022/01/02 09:41:22;;;;;;;99.72;46.05;;;;;;;19.34;45.02;99251.69;4852707;29;20054;-65
2022/01/02 09:44:09;;;;;;;83.13;42.65;;;;;;;19.29;42.67;99258.94;4850602;29;20041;-65
2022/01/02 09:46:52;;;;;;;87.57;41.05;;;;;;;19.20;42.02;99254.22;4841387;29;20054;-65
2022/01/02 09:49:40;;;;;;;80.68;41.70;;;;;;;19.10;42.17;99258.28;4830081;29;20062;-65
2022/01/02 09:52:31;;;;;;;85.88;42.47;;;;;;;19.12;42.32;99256.44;4842324;29;20061;-65
2022/01/02 09:55:14;;;;;;;81.07;38.70;;;;;;;19.05;41.82;99255.94;4832120;29;20046;-65
2022/01/02 09:58:12;;;;;;;79.03;39.95;;;;;;;19.06;42.70;99248.94;4838440;29;20494;-66
2022/01/02 10:00:59;;;;;;;76.55;39.88;;;;;;;19.05;42.49;99240.25;4838807;29;20050;-65
2022/01/02 10:03:54;;;;;;;73.25;40.60;;;;;;;19.06;42.24;99246.34;4844081;29;20045;-65
2022/01/02 10:06:47;;;;;;;73.40;40.35;;;;;;;19.06;43.06;99230.66;4836961;29;20065;-64
2022/01/02 10:09:39;;;;;;;82.72;39.80;;;;;;;19.01;42.93;99222.22;4820304;29;20050;-64
2022/01/02 10:12:25;;;;;;;78.80;40.63;;;;;;;18.96;43.82;99216.41;4836610;29;20045;-65
2022/01/02 10:15:28;;;;;;;78.72;40.55;;;;;;;18.96;43.94;99214.66;4517178;29;10001016;-63
2022/01/02 10:18:11;;;;;;;89.22;41.60;;;;;;;18.91;43.84;99211.47;4817572;29;20056;-66
2022/01/02 10:21:00;;;;;;;88.05;41.83;;;;;;;18.84;44.96;99211.84;4845696;29;20467;-65
2022/01/02 10:23:41;;;;;;;92.20;43.03;;;;;;;18.75;44.74;99213.25;4843088;29;20481;-65
2022/01/02 10:26:30;;;;;;;92.75;44.00;;;;;;;18.77;44.75;99210.53;4842801;29;20248;-64
2022/01/02 10:29:13;;;;;;;87.97;42.45;;;;;;;18.79;45.35;99214.75;4829558;29;20137;-65
2022/01/02 10:32:01;;;;;;;81.13;43.63;;;;;;;18.62;45.82;99215.66;4848890;29;20121;-63
2022/01/02 10:34:44;;;;;;;78.05;41.05;;;;;;;18.56;45.90;99236.00;4827740;29;20058;-64
2022/01/02 10:37:33;;;;;;;85.97;40.33;;;;;;;18.64;45.59;99244.28;4842731;29;20050;-64
2022/01/02 10:40:34;;;;;;;78.30;41.40;;;;;;;18.44;46.97;99231.44;4487729;29;10000498;-66
2022/01/02 10:43:35;;;;;;;88.22;41.97;;;;;;;18.44;46.37;99229.66;4831542;29;20059;-66
2022/01/02 10:46:23;;;;;;;80.13;40.58;;;;;;;18.34;46.63;99226.72;4835839;29;20152;-65
2022/01/02 10:49:05;;;;;;;88.85;39.55;;;;;;;18.30;47.29;99229.53;4838548;29;20054;-64
2022/01/02 10:51:56;;;;;;;82.47;40.42;;;;;;;18.23;47.80;99228.19;4817707;29;20114;-67
2022/01/02 10:54:41;;;;;;;83.28;40.30;;;;;;;18.20;47.16;99228.31;4830390;29;20117;-67
2022/01/02 10:57:35;;;;;;;89.47;41.92;;;;;;;18.14;47.50;99229.50;4837518;29;20049;-68
2022/01/02 11:00:25;;;;;;;95.93;41.50;;;;;;;18.16;48.84;99229.44;4842293;29;20057;-66
2022/01/02 11:03:16;;;;;;;86.13;42.08;;;;;;;18.23;48.69;99238.63;4844783;29;20493;-67
2022/01/02 11:06:10;;;;;;;97.50;42.50;;;;;;;18.22;47.49;99256.03;4847319;29;20042;-66
2022/01/02 11:09:06;;;;;;;84.30;43.05;;;;;;;18.11;49.89;99260.13;4842840;29;20053;-68
2022/01/02 11:12:00;;;;;;;94.57;44.13;;;;;;;18.00;49.57;99265.03;4841607;29;20053;-68
2022/01/02 11:14:36;;;;;;;98.78;45.15;;;;;;;17.97;49.26;99269.47;4837826;29;20137;-63
2022/01/02 11:17:25;;;;;;;99.60;46.50;;;;;;;17.91;49.78;99266.34;4836010;29;20050;-67
2022/01/02 11:20:06;;;;;;;102.93;46.35;;;;;;;17.82;49.29;99265.03;4828005;29;20053;-68
2022/01/02 11:23:07;;;;;;;100.38;44.80;;;;;;;17.84;50.80;99268.41;4829016;29;20898;-65
2022/01/02 11:26:35;;;;;;;93.63;41.83;;;;;;;17.82;49.50;99275.47;4828123;29;20046;-65
2022/01/02 11:29:36;;;;;;;95.75;41.63;;;;;;;17.81;51.84;99283.34;4843248;29;20136;-66
2022/01/02 11:32:27;;;;;;;89.88;41.95;;;;;;;17.74;50.96;99271.53;4831036;29;20383;-66
2022/01/02 11:35:32;;;;;;;93.95;44.25;;;;;;;17.67;50.71;99270.16;4845467;29;20050;-65
2022/01/02 11:38:22;;;;;;;80.85;42.30;;;;;;;17.64;51.67;99271.16;4844058;29;20141;-63
2022/01/02 11:41:13;;;;;;;85.18;43.42;;;;;;;17.54;52.11;99269.91;4828240;29;20153;-66
2022/01/02 11:43:56;;;;;;;85.53;43.25;;;;;;;17.52;53.12;99283.00;4843194;29;20136;-65
2022/01/02 11:47:02;;;;;;;102.28;45.28;;;;;;;17.37;54.09;99291.56;4844029;29;20050;-65
2022/01/02 11:49:44;;;;;;;91.88;43.28;;;;;;;17.35;54.99;99295.16;4845210;29;20525;-65
2022/01/02 11:52:34;;;;;;;85.85;45.10;;;;;;;17.29;55.63;99285.88;4845874;29;20058;-65
2022/01/02 11:55:16;;;;;;;96.65;46.20;;;;;;;17.21;59.00;99285.41;4838192;29;20824;-65
2022/01/02 11:58:05;;;;;;;94.85;45.80;;;;;;;17.09;58.01;99284.19;4845285;29;20061;-65
2022/01/02 12:00:52;;;;;;;98.60;47.58;;;;;;;17.00;58.81;99294.22;4845396;29;20283;-66
2022/01/02 12:03:48;;;;;;;105.80;47.45;;;;;;;16.94;61.06;99286.66;4840385;29;20058;-65
2022/01/02 12:06:44;;;;;;;111.88;49.17;;;;;;;16.85;65.75;99293.13;4840893;29;20090;-66
2022/01/02 12:09:37;;;;;;;97.53;47.72;;;;;;;16.64;64.45;99299.31;4843279;29;20110;-65
2022/01/02 12:12:30;;;;;;;108.22;49.97;;;;;;;16.49;67.67;99302.56;4842658;29;20050;-65
2022/01/02 12:15:06;;;;;;;110.25;50.05;;;;;;;16.33;67.38;99305.84;4837149;29;20045;-67
2022/01/02 12:18:31;;;;;;;112.63;50.08;;;;;;;16.25;68.06;99307.09;4842252;29;20057;-67
2022/01/02 12:21:07;;;;;;;108.25;50.45;;;;;;;16.22;68.41;99302.84;4844725;29;20652;-67
2022/01/02 12:24:04;;;;;;;111.07;51.42;;;;;;;16.10;68.94;99294.75;4830804;29;20057;-66
2022/01/02 12:26:40;;;;;;;107.25;52.40;;;;;;;15.98;70.16;99294.34;4843597;29;20094;-66
2022/01/02 12:29:35;;;;;;;111.18;53.17;;;;;;;15.82;70.38;99289.84;4841760;29;20126;-66
2022/01/02 12:32:12;;;;;;;111.47;54.00;;;;;;;15.68;72.52;99304.25;4843000;29;20050;-67
2022/01/02 12:35:08;;;;;;;116.15;54.85;;;;;;;15.43;72.73;99308.69;4843174;29;20522;-66
2022/01/02 12:37:43;;;;;;;107.20;52.90;;;;;;;15.29;74.60;99311.00;4845380;29;20041;-66
2022/01/02 12:40:49;;;;;;;116.57;57.03;;;;;;;15.18;77.06;99307.97;4838035;29;20139;-66
2022/01/02 12:43:24;;;;;;;123.03;53.88;;;;;;;15.12;78.27;99298.69;4821292;29;20061;-67
2022/01/02 12:46:13;;;;;;;115.50;54.78;;;;;;;14.98;77.30;99305.31;4831969;29;20529;-67
2022/01/02 12:48:56;;;;;;;123.57;59.65;;;;;;;14.94;78.03;99304.56;4828740;29;20098;-67
2022/01/02 12:51:46;;;;;;;111.95;57.13;;;;;;;14.88;77.75;99302.19;4828716;29;20058;-67